Time;durP1;ratioP1;P1;durP2;ratioP2;P2;SDS_P1;SDS_P2;PMS_P1;PMS_P2;Temp;Humidity;BMP_temperature;BMP_pressure;BME280_temperature;BME280_humidity;BME280_pressure;Samples;Min_cycle;Max_cycle;Signal;HPM_P1;HPM_P2
2023/08/17 00:08:53;;;;;;;9.20;7.20;;;;;;;24.36;61.39;99702.61;434044;1258;139499;-66
2023/08/17 00:18:58;;;;;;;10.50;6.50;;;;;;;24.34;60.97;99695.88;433933;1256;139093;-66
2023/08/17 00:29:05;;;;;;;7.40;6.70;;;;;;;24.34;60.35;99686.17;434290;1258;139283;-65
2023/08/17 00:39:10;;;;;;;7.40;6.70;;;;;;;24.33;60.60;99691.16;434226;1258;139121;-67
2023/08/17 00:49:16;;;;;;;9.00;8.10;;;;;;;24.28;60.86;99693.64;434888;1258;138309;-66
2023/08/17 00:59:23;;;;;;;8.80;7.90;;;;;;;24.18;61.21;99701.73;434491;1258;138743;-65
2023/08/17 01:09:29;;;;;;;7.90;7.10;;;;;;;24.08;61.43;99710.23;434311;1257;139136;-66
2023/08/17 01:19:37;;;;;;;8.70;8.00;;;;;;;23.95;61.80;99710.31;434256;1256;139228;-66
2023/08/17 01:29:43;;;;;;;9.10;7.90;;;;;;;23.84;62.30;99716.86;434454;1258;139559;-63
2023/08/17 01:39:56;;;;;;;8.20;7.30;;;;;;;23.76;62.69;99724.01;434555;1259;182925;-64
2023/08/17 01:50:02;;;;;;;8.60;7.70;;;;;;;23.65;63.35;99716.00;435145;1258;139504;-64
2023/08/17 02:00:10;;;;;;;10.50;7.90;;;;;;;23.52;63.02;99708.44;434473;1259;138921;-63
2023/08/17 02:10:16;;;;;;;8.00;7.30;;;;;;;23.38;62.59;99705.36;435074;1259;139704;-65
2023/08/17 02:20:22;;;;;;;8.20;7.40;;;;;;;23.28;62.42;99706.52;434356;1259;139704;-66
2023/08/17 02:30:28;;;;;;;9.40;7.70;;;;;;;23.14;62.96;99708.63;434304;1258;140593;-66
2023/08/17 02:40:34;;;;;;;8.70;7.80;;;;;;;22.96;63.45;99708.70;434260;1260;140047;-67
2023/08/17 02:50:40;;;;;;;10.00;7.90;;;;;;;22.77;63.86;99710.59;434177;1256;139251;-67
2023/08/17 03:00:46;;;;;;;7.70;6.90;;;;;;;22.62;64.27;99708.69;434428;1260;139081;-66
2023/08/17 03:10:52;;;;;;;8.60;7.90;;;;;;;22.53;64.83;99701.60;434399;1260;140006;-68
2023/08/17 03:20:58;;;;;;;8.80;8.10;;;;;;;22.52;65.02;99711.20;434315;1256;139866;-66
2023/08/17 03:31:04;;;;;;;7.20;6.60;;;;;;;22.50;64.71;99717.02;434448;1260;138831;-67
2023/08/17 03:41:11;;;;;;;7.50;6.70;;;;;;;22.50;64.10;99717.83;434630;1259;139624;-67
2023/08/17 03:51:17;;;;;;;7.80;7.00;;;;;;;22.50;64.22;99716.67;434907;1260;139072;-66
2023/08/17 04:01:23;;;;;;;8.10;7.40;;;;;;;22.52;64.37;99731.34;434736;1260;141122;-67
2023/08/17 04:11:29;;;;;;;8.60;7.70;;;;;;;22.53;64.60;99736.05;434314;1260;139482;-66
2023/08/17 04:21:35;;;;;;;11.10;7.50;;;;;;;22.51;64.48;99763.34;434184;1260;139669;-66
2023/08/17 04:31:40;;;;;;;11.10;8.00;;;;;;;22.43;64.68;99785.14;434156;1260;139393;-68
2023/08/17 04:41:46;;;;;;;8.50;7.40;;;;;;;22.37;64.73;99791.13;434714;1260;139435;-66
2023/08/17 04:51:52;;;;;;;9.30;7.90;;;;;;;22.35;64.97;99792.25;434291;1258;138996;-66
2023/08/17 05:01:58;;;;;;;8.90;7.50;;;;;;;22.38;65.04;99782.94;434247;1260;139376;-73
2023/08/17 05:12:04;;;;;;;8.90;7.90;;;;;;;22.58;65.21;99795.09;434944;1260;138913;-72
2023/08/17 05:22:13;;;;;;;8.60;7.70;;;;;;;22.84;65.05;99803.39;435064;1257;139433;-71
2023/08/17 05:32:19;;;;;;;8.70;7.90;;;;;;;23.33;64.94;99794.48;434562;1257;139256;-70
2023/08/17 05:42:25;;;;;;;7.90;7.10;;;;;;;24.92;64.23;99794.36;434304;1260;139175;-68
2023/08/17 05:52:32;;;;;;;8.30;6.80;;;;;;;27.95;61.07;99794.79;433885;1259;138940;-65
2023/08/17 06:02:37;;;;;;;7.80;6.70;;;;;;;31.90;55.40;99796.85;434215;1260;138853;-65
2023/08/17 06:12:43;;;;;;;10.00;6.50;;;;;;;34.29;47.83;99800.19;435016;1258;138175;-66
2023/08/17 06:22:50;;;;;;;8.20;6.90;;;;;;;33.50;45.09;99809.41;434560;1257;138763;-61
2023/08/17 06:32:55;;;;;;;9.10;7.00;;;;;;;32.09;45.42;99818.85;434395;1258;138728;-62
2023/08/17 06:43:01;;;;;;;7.70;6.70;;;;;;;31.29;46.08;99814.59;434999;1260;138577;-62
2023/08/17 06:53:08;;;;;;;6.90;6.40;;;;;;;31.37;46.19;99816.27;434711;1260;139203;-62
2023/08/17 07:03:12;;;;;;;;;;;;;;;31.39;45.94;99818.52;434436;1257;138628;-62
2023/08/17 07:13:17;;;;;;;9.70;6.30;;;;;;;31.32;45.99;99817.98;434314;1255;125773;-60
2023/08/17 07:23:23;;;;;;;18.80;7.40;;;;;;;32.45;45.75;99816.96;434426;1255;138736;-61
2023/08/17 07:33:29;;;;;;;18.70;6.70;;;;;;;33.71;44.40;99814.73;434452;1257;139329;-62
2023/08/17 07:43:35;;;;;;;7.20;6.50;;;;;;;36.64;42.64;99822.15;434885;1258;138663;-62
2023/08/17 07:53:41;;;;;;;7.10;5.60;;;;;;;40.75;38.20;99825.73;434831;1258;140205;-69
2023/08/17 08:03:47;;;;;;;15.20;7.30;;;;;;;44.83;32.48;99830.90;435902;1255;138662;-76
2023/08/17 08:13:53;;;;;;;6.60;5.50;;;;;;;44.89;29.44;99837.27;437378;1256;139954;-68
2023/08/17 08:23:59;;;;;;;7.50;5.50;;;;;;;44.73;29.07;99844.89;437402;1255;138264;-71
2023/08/17 08:34:05;;;;;;;7.00;6.20;;;;;;;42.54;28.80;99831.16;437271;1256;138557;-78
2023/08/17 08:44:11;;;;;;;6.10;5.60;;;;;;;38.99;31.30;99829.05;437086;1256;139167;-70
2023/08/17 08:54:21;;;;;;;14.60;6.90;;;;;;;37.03;33.96;99829.28;435919;1258;138900;-72
2023/08/17 09:04:28;;;;;;;7.00;5.10;;;;;;;35.52;35.99;99829.85;434375;1258;138651;-63
2023/08/17 09:14:33;;;;;;;8.60;5.50;;;;;;;34.55;37.89;99831.62;434377;1258;139831;-62
2023/08/17 09:24:38;;;;;;;;;;;;;;;34.09;39.04;99831.94;433829;1258;138520;-62
2023/08/17 09:34:45;;;;;;;7.10;6.00;;;;;;;34.01;39.65;99829.92;434640;1255;126628;-63
2023/08/17 09:44:55;;;;;;;8.30;7.50;;;;;;;34.07;39.78;99829.69;434726;1257;138428;-63
2023/08/17 09:55:03;;;;;;;8.20;7.40;;;;;;;33.87;40.24;99834.52;434728;1258;138190;-63
2023/08/17 10:05:14;;;;;;;8.50;7.70;;;;;;;33.49;40.58;99834.97;434639;1258;138358;-63
2023/08/17 10:15:26;;;;;;;10.30;8.20;;;;;;;33.28;41.29;99830.34;434555;1258;139385;-62
2023/08/17 10:25:32;;;;;;;13.40;10.50;;;;;;;33.29;41.65;99827.79;434839;1258;138816;-64
2023/08/17 10:35:39;;;;;;;10.20;8.80;;;;;;;32.84;42.05;99823.91;435011;1259;138904;-62
2023/08/17 10:45:47;;;;;;;10.70;9.70;;;;;;;32.16;43.08;99820.19;434584;1256;139147;-68
2023/08/17 10:55:59;;;;;;;11.90;10.60;;;;;;;31.69;44.25;99814.89;434646;1258;139767;-65
2023/08/17 11:06:18;;;;;;;10.70;9.80;;;;;;;31.63;44.65;99807.73;435189;1258;138301;-71
2023/08/17 11:16:24;;;;;;;11.30;10.20;;;;;;;31.94;44.76;99808.88;435513;1256;141031;-71
2023/08/17 11:26:30;;;;;;;11.20;10.30;;;;;;;32.34;44.43;99810.98;434783;1256;138719;-73
2023/08/17 11:36:41;;;;;;;11.30;10.30;;;;;;;32.88;43.78;99809.33;434955;1255;138499;-76
2023/08/17 11:46:47;;;;;;;12.10;11.00;;;;;;;33.17;43.12;99804.23;437261;1255;138497;-69
2023/08/17 11:56:51;;;;;;;;;;;;;;;33.00;42.98;99802.16;434513;1256;193921;-65
2023/08/17 12:06:57;;;;;;;12.30;11.20;;;;;;;32.86;43.05;99800.91;434641;1256;124797;-69
2023/08/17 12:17:04;;;;;;;13.60;10.80;;;;;;;32.58;43.14;99810.17;434673;1255;139001;-71
2023/08/17 12:27:10;;;;;;;12.00;10.80;;;;;;;32.28;43.44;99815.31;433935;1255;139057;-64
2023/08/17 12:37:21;;;;;;;10.80;9.90;;;;;;;32.05;43.70;99813.41;434536;1258;140081;-73
2023/08/17 12:47:27;;;;;;;12.00;10.70;;;;;;;31.77;43.94;99815.34;437773;1256;140076;-70
2023/08/17 12:57:38;;;;;;;12.70;10.50;;;;;;;31.69;44.81;99808.52;434654;1258;139534;-65
2023/08/17 13:07:44;;;;;;;12.40;11.20;;;;;;;31.90;45.10;99794.82;434546;1255;142146;-63
2023/08/17 13:17:50;;;;;;;12.80;11.70;;;;;;;32.20;44.88;99783.20;434538;1258;138867;-63
2023/08/17 13:27:56;;;;;;;12.60;11.60;;;;;;;32.35;44.00;99777.61;434389;1255;138803;-63
2023/08/17 13:38:03;;;;;;;12.00;10.90;;;;;;;32.25;43.76;99772.08;434408;1256;138671;-61
2023/08/17 13:48:10;;;;;;;12.10;11.00;;;;;;;32.06;44.25;99775.92;434519;1255;138630;-63
2023/08/17 13:58:15;;;;;;;;;;;;;;;31.68;44.50;99768.98;434589;1254;139127;-63
2023/08/17 14:08:21;;;;;;;15.90;11.40;;;;;;;31.27;44.81;99769.69;434516;1257;125304;-65
2023/08/17 14:18:27;;;;;;;11.90;10.90;;;;;;;31.01;45.34;99775.88;436071;1256;138553;-71
2023/08/17 14:28:33;;;;;;;11.40;10.30;;;;;;;30.92;45.71;99772.88;437262;1255;139131;-72
2023/08/17 14:38:38;;;;;;;10.60;8.80;;;;;;;30.92;45.38;99770.27;437213;1255;140939;-66
2023/08/17 14:48:44;;;;;;;11.70;10.50;;;;;;;31.09;44.14;99757.83;434909;1256;139362;-67
2023/08/17 14:58:50;;;;;;;8.60;7.80;;;;;;;31.28;43.26;99752.04;434654;1254;139799;-70
2023/08/17 15:08:56;;;;;;;7.10;6.30;;;;;;;31.50;42.79;99754.95;434846;1256;139129;-70
2023/08/17 15:19:03;;;;;;;8.10;6.70;;;;;;;31.61;41.85;99756.70;435051;1258;139236;-68
2023/08/17 15:29:12;;;;;;;6.20;5.60;;;;;;;31.60;41.33;99749.86;435101;1255;139910;-66
2023/08/17 15:39:18;;;;;;;8.30;7.40;;;;;;;31.40;41.13;99743.64;435009;1256;141664;-68
2023/08/17 15:49:24;;;;;;;6.90;6.10;;;;;;;31.16;41.79;99741.46;435266;1255;139498;-68
2023/08/17 15:59:30;;;;;;;8.80;7.30;;;;;;;30.89;42.09;99737.55;435025;1259;138065;-63
2023/08/17 16:09:36;;;;;;;9.50;6.30;;;;;;;30.55;42.54;99735.73;434970;1256;138570;-62
2023/08/17 16:19:42;;;;;;;7.20;5.40;;;;;;;30.18;42.76;99738.23;434572;1258;138945;-67
2023/08/17 16:29:47;;;;;;;5.70;5.10;;;;;;;29.79;42.14;99739.04;434538;1257;139004;-67
2023/08/17 16:39:53;;;;;;;14.20;5.00;;;;;;;29.45;42.36;99735.97;434500;1258;138223;-68
2023/08/17 16:50:00;;;;;;;9.50;5.20;;;;;;;29.11;43.10;99744.88;434877;1258;138438;-67
2023/08/17 17:00:08;;;;;;;8.40;5.10;;;;;;;28.75;44.27;99750.02;435035;1258;138282;-66
2023/08/17 17:10:14;;;;;;;11.70;5.20;;;;;;;28.37;45.42;99758.26;434827;1258;138507;-67
2023/08/17 17:20:20;;;;;;;5.40;4.20;;;;;;;27.82;46.50;99776.33;434641;1258;138297;-68
2023/08/17 17:30:26;;;;;;;11.60;4.60;;;;;;;27.13;47.64;99791.11;434601;1258;138251;-67
2023/08/17 17:40:31;;;;;;;6.90;3.60;;;;;;;26.49;48.53;99788.41;434568;1258;139624;-66
2023/08/17 17:50:37;;;;;;;5.00;3.50;;;;;;;26.00;49.45;99779.88;434489;1256;138414;-67
2023/08/17 18:00:43;;;;;;;9.00;4.90;;;;;;;25.66;50.49;99774.85;434609;1256;138883;-68
2023/08/17 18:10:49;;;;;;;13.40;6.00;;;;;;;25.39;51.72;99769.81;434948;1256;138891;-67
2023/08/17 18:20:55;;;;;;;5.90;4.90;;;;;;;25.17;52.83;99765.39;434473;1256;140477;-67
2023/08/17 18:31:01;;;;;;;10.50;4.60;;;;;;;24.91;53.90;99760.12;434433;1258;138164;-67
2023/08/17 18:41:10;;;;;;;6.70;4.60;;;;;;;24.75;54.98;99753.66;434462;1257;138836;-69
2023/08/17 18:51:17;;;;;;;12.90;5.60;;;;;;;24.65;55.75;99746.71;434537;1258;138965;-68
2023/08/17 19:01:23;;;;;;;5.20;4.70;;;;;;;24.58;56.28;99731.81;434848;1256;138450;-69
2023/08/17 19:11:29;;;;;;;9.20;4.80;;;;;;;24.48;56.78;99749.52;435066;1256;138763;-68
2023/08/17 19:21:35;;;;;;;5.10;4.70;;;;;;;24.31;57.47;99757.65;434462;1258;138415;-66
2023/08/17 19:31:40;;;;;;;7.60;5.10;;;;;;;24.05;58.41;99762.49;434498;1258;139849;-59
2023/08/17 19:41:48;;;;;;;10.30;5.80;;;;;;;23.76;59.47;99753.13;434534;1259;139884;-60
2023/08/17 19:51:54;;;;;;;7.90;5.10;;;;;;;23.51;60.07;99747.70;435029;1256;139984;-60
2023/08/17 20:02:00;;;;;;;7.40;5.90;;;;;;;23.28;61.11;99749.05;435099;1258;140828;-61
2023/08/17 20:12:07;;;;;;;13.00;6.00;;;;;;;23.07;62.04;99748.00;435135;1258;139270;-59
2023/08/17 20:22:13;;;;;;;7.50;6.70;;;;;;;22.91;62.74;99755.27;435596;1259;139256;-61
2023/08/17 20:32:19;;;;;;;10.90;7.40;;;;;;;22.76;63.55;99757.35;435253;1258;140165;-61
2023/08/17 20:42:25;;;;;;;12.20;6.30;;;;;;;22.57;64.44;99760.08;435134;1259;138909;-61
2023/08/17 20:52:30;;;;;;;8.50;5.70;;;;;;;22.42;65.12;99760.47;435128;1258;138974;-60
2023/08/17 21:02:36;;;;;;;7.20;6.00;;;;;;;22.23;65.99;99768.77;435175;1256;139064;-61
2023/08/17 21:12:42;;;;;;;7.60;6.90;;;;;;;22.07;66.89;99767.22;434991;1258;138731;-61
2023/08/17 21:22:53;;;;;;;7.60;6.10;;;;;;;21.91;67.33;99773.30;435000;1257;139835;-60
2023/08/17 21:32:59;;;;;;;6.80;5.90;;;;;;;21.74;67.82;99777.96;434996;1257;138824;-60
2023/08/17 21:43:05;;;;;;;7.80;7.00;;;;;;;21.56;68.37;99784.81;434952;1256;138713;-61
2023/08/17 21:53:11;;;;;;;10.20;6.60;;;;;;;21.41;69.02;99791.35;435349;1256;139025;-61
2023/08/17 22:03:18;;;;;;;10.70;7.20;;;;;;;21.23;69.52;99795.50;434716;1258;139181;-61
2023/08/17 22:13:24;;;;;;;8.30;7.10;;;;;;;21.04;70.16;99788.35;434997;1258;139163;-62
2023/08/17 22:23:30;;;;;;;10.60;7.80;;;;;;;20.92;70.84;99783.77;435312;1257;139856;-59
2023/08/17 22:33:36;;;;;;;9.40;8.50;;;;;;;20.82;71.37;99787.08;435232;1259;139363;-61
2023/08/17 22:43:42;;;;;;;7.80;6.90;;;;;;;20.78;71.95;99772.17;434763;1259;138790;-62
2023/08/17 22:53:48;;;;;;;15.70;14.10;;;;;;;20.82;72.37;99776.08;435207;1254;138766;-60
2023/08/17 23:03:53;;;;;;;13.70;12.00;;;;;;;20.85;72.71;99765.77;435038;1254;139706;-60
2023/08/17 23:13:59;;;;;;;12.10;8.90;;;;;;;20.80;72.99;99759.02;434704;1257;140053;-59
2023/08/17 23:24:06;;;;;;;10.60;7.50;;;;;;;20.60;73.37;99743.41;435439;1258;139320;-60
2023/08/17 23:34:12;;;;;;;9.90;7.80;;;;;;;20.48;74.01;99765.10;435314;1258;139135;-60
2023/08/17 23:44:22;;;;;;;9.40;8.20;;;;;;;20.42;74.52;99769.43;436163;1258;140910;-61
2023/08/17 23:54:28;;;;;;;8.90;8.00;;;;;;;20.46;74.85;99774.39;435125;1255;139067;-60
